sensor_id;sensor_type;location;lat;lon;timestamp;pressure;altitude;pressure_sealevel;temperature;humidity
13476;BME280;6810;63.824;20.288;2022-08-30T00:00:26;102441.28;;;14.04;68.37
13476;BME280;6810;63.824;20.288;2022-08-30T00:03:12;102443.00;;;14.05;68.35
13476;BME280;6810;63.824;20.288;2022-08-30T00:06:00;102433.38;;;14.01;68.14
13476;BME280;6810;63.824;20.288;2022-08-30T00:08:48;102417.84;;;13.89;68.11
13476;BME280;6810;63.824;20.288;2022-08-30T00:11:35;102442.19;;;14.03;68.25
13476;BME280;6810;63.824;20.288;2022-08-30T00:14:22;102441.34;;;14.03;67.95
13476;BME280;6810;63.824;20.288;2022-08-30T00:17:09;102441.41;;;14.01;67.67
13476;BME280;6810;63.824;20.288;2022-08-30T00:19:56;102444.94;;;14.02;68.08
13476;BME280;6810;63.824;20.288;2022-08-30T00:22:44;102442.34;;;14.00;67.98
13476;BME280;6810;63.824;20.288;2022-08-30T00:25:31;102441.47;;;14.00;67.49
13476;BME280;6810;63.824;20.288;2022-08-30T00:28:18;102447.75;;;13.98;67.75
13476;BME280;6810;63.824;20.288;2022-08-30T00:31:05;102443.34;;;13.98;67.61
13476;BME280;6810;63.824;20.288;2022-08-30T00:33:52;102446.03;;;13.98;67.50
13476;BME280;6810;63.824;20.288;2022-08-30T00:36:39;102438.19;;;13.93;67.52
13476;BME280;6810;63.824;20.288;2022-08-30T00:39:26;102446.09;;;13.96;67.30
13476;BME280;6810;63.824;20.288;2022-08-30T00:42:15;102442.53;;;13.95;66.92
13476;BME280;6810;63.824;20.288;2022-08-30T00:45:21;102447.91;;;13.95;66.46
13476;BME280;6810;63.824;20.288;2022-08-30T00:48:08;102448.84;;;13.94;66.66
13476;BME280;6810;63.824;20.288;2022-08-30T00:51:00;102432.09;;;13.89;66.47
13476;BME280;6810;63.824;20.288;2022-08-30T00:53:50;102447.25;;;13.90;66.20
13476;BME280;6810;63.824;20.288;2022-08-30T00:56:38;102423.66;;;13.78;66.50
13476;BME280;6810;63.824;20.288;2022-08-30T00:59:25;102442.75;;;13.91;66.09
13476;BME280;6810;63.824;20.288;2022-08-30T01:02:13;102445.44;;;13.91;66.49
13476;BME280;6810;63.824;20.288;2022-08-30T01:05:02;102449.06;;;13.90;66.35
13476;BME280;6810;63.824;20.288;2022-08-30T01:07:49;102441.97;;;13.89;66.18
13476;BME280;6810;63.824;20.288;2022-08-30T01:10:37;102438.41;;;13.88;66.63
13476;BME280;6810;63.824;20.288;2022-08-30T01:13:25;102450.06;;;13.87;66.10
13476;BME280;6810;63.824;20.288;2022-08-30T01:16:13;102440.28;;;13.86;66.07
13476;BME280;6810;63.824;20.288;2022-08-30T01:19:01;102433.72;;;13.73;66.03
13476;BME280;6810;63.824;20.288;2022-08-30T01:21:53;102445.78;;;13.83;66.37
13476;BME280;6810;63.824;20.288;2022-08-30T01:24:43;102454.16;;;13.76;66.19
13476;BME280;6810;63.824;20.288;2022-08-30T01:27:36;102452.34;;;13.76;66.69
13476;BME280;6810;63.824;20.288;2022-08-30T01:30:24;102461.31;;;13.75;66.83
13476;BME280;6810;63.824;20.288;2022-08-30T01:33:11;102460.53;;;13.73;67.01
13476;BME280;6810;63.824;20.288;2022-08-30T01:36:01;102465.97;;;13.72;66.82
13476;BME280;6810;63.824;20.288;2022-08-30T01:38:50;102465.97;;;13.72;66.84
13476;BME280;6810;63.824;20.288;2022-08-30T01:41:38;102472.22;;;13.71;67.54
13476;BME280;6810;63.824;20.288;2022-08-30T01:44:25;102465.13;;;13.70;66.47
13476;BME280;6810;63.824;20.288;2022-08-30T01:47:12;102467.81;;;13.70;67.11
13476;BME280;6810;63.824;20.288;2022-08-30T01:50:00;102473.19;;;13.70;67.18
13476;BME280;6810;63.824;20.288;2022-08-30T01:52:47;102477.66;;;13.69;67.57
13476;BME280;6810;63.824;20.288;2022-08-30T01:55:14;102475.94;;;13.68;67.23
13476;BME280;6810;63.824;20.288;2022-08-30T01:57:41;102480.41;;;13.68;67.64
13476;BME280;6810;63.824;20.288;2022-08-30T02:00:09;102477.78;;;13.66;67.62
13476;BME280;6810;63.824;20.288;2022-08-30T02:02:39;102470.69;;;13.65;67.38
13476;BME280;6810;63.824;20.288;2022-08-30T02:05:06;102476.13;;;13.64;67.91
13476;BME280;6810;63.824;20.288;2022-08-30T02:07:34;102476.13;;;13.64;67.25
13476;BME280;6810;63.824;20.288;2022-08-30T02:10:01;102477.91;;;13.63;67.77
13476;BME280;6810;63.824;20.288;2022-08-30T02:12:28;102485.13;;;13.63;67.93
13476;BME280;6810;63.824;20.288;2022-08-30T02:14:55;102465.06;;;13.51;67.78
13476;BME280;6810;63.824;20.288;2022-08-30T02:17:23;102488.72;;;13.62;68.19
13476;BME280;6810;63.824;20.288;2022-08-30T02:19:51;102483.41;;;13.60;68.09
13476;BME280;6810;63.824;20.288;2022-08-30T02:22:18;102488.78;;;13.60;67.79
13476;BME280;6810;63.824;20.288;2022-08-30T02:24:46;102484.38;;;13.59;68.04
13476;BME280;6810;63.824;20.288;2022-08-30T02:27:13;102485.25;;;13.60;68.01
13476;BME280;6810;63.824;20.288;2022-08-30T02:29:40;102476.59;;;13.53;68.08
13476;BME280;6810;63.824;20.288;2022-08-30T02:32:08;102474.09;;;13.49;68.29
13476;BME280;6810;63.824;20.288;2022-08-30T02:34:35;102487.94;;;13.60;68.08
13476;BME280;6810;63.824;20.288;2022-08-30T02:37:02;102480.81;;;13.59;68.74
13476;BME280;6810;63.824;20.288;2022-08-30T02:39:29;102480.09;;;13.55;68.14
13476;BME280;6810;63.824;20.288;2022-08-30T02:41:56;102475.00;;;13.49;68.56
13476;BME280;6810;63.824;20.288;2022-08-30T02:44:23;102508.47;;;13.59;68.25
13476;BME280;6810;63.824;20.288;2022-08-30T02:46:50;102506.69;;;13.60;68.64
13476;BME280;6810;63.824;20.288;2022-08-30T02:49:17;102498.56;;;13.61;68.30
13476;BME280;6810;63.824;20.288;2022-08-30T02:52:02;102497.63;;;13.62;68.86
13476;BME280;6810;63.824;20.288;2022-08-30T02:54:29;102505.66;;;13.62;68.38
13476;BME280;6810;63.824;20.288;2022-08-30T02:56:59;102496.69;;;13.63;69.00
13476;BME280;6810;63.824;20.288;2022-08-30T02:59:31;102496.69;;;13.63;68.52
13476;BME280;6810;63.824;20.288;2022-08-30T03:01:59;102501.13;;;13.64;68.19
13476;BME280;6810;63.824;20.288;2022-08-30T03:04:26;102498.38;;;13.66;68.95
13476;BME280;6810;63.824;20.288;2022-08-30T03:06:53;102506.41;;;13.66;68.93
13476;BME280;6810;63.824;20.288;2022-08-30T03:09:21;102505.47;;;13.67;69.27
13476;BME280;6810;63.824;20.288;2022-08-30T03:11:48;102507.28;;;13.66;69.43
13476;BME280;6810;63.824;20.288;2022-08-30T03:14:15;102505.47;;;13.67;68.77
13476;BME280;6810;63.824;20.288;2022-08-30T03:16:42;102508.16;;;13.67;68.90
13476;BME280;6810;63.824;20.288;2022-08-30T03:19:09;102504.59;;;13.66;68.48
13476;BME280;6810;63.824;20.288;2022-08-30T03:21:36;102517.16;;;13.66;68.75
13476;BME280;6810;63.824;20.288;2022-08-30T03:24:04;102522.50;;;13.66;68.33
13476;BME280;6810;63.824;20.288;2022-08-30T03:26:31;102523.34;;;13.66;68.55
13476;BME280;6810;63.824;20.288;2022-08-30T03:28:58;102529.59;;;13.67;69.30
13476;BME280;6810;63.824;20.288;2022-08-30T03:31:25;102523.34;;;13.66;69.37
13476;BME280;6810;63.824;20.288;2022-08-30T03:33:52;102512.31;;;13.54;68.47
13476;BME280;6810;63.824;20.288;2022-08-30T03:36:19;102529.66;;;13.65;69.23
13476;BME280;6810;63.824;20.288;2022-08-30T03:38:47;102534.13;;;13.65;69.01
13476;BME280;6810;63.824;20.288;2022-08-30T03:41:14;102529.66;;;13.65;69.41
13476;BME280;6810;63.824;20.288;2022-08-30T03:43:43;102529.72;;;13.64;68.66
13476;BME280;6810;63.824;20.288;2022-08-30T03:46:13;102534.13;;;13.65;68.64
13476;BME280;6810;63.824;20.288;2022-08-30T03:48:41;102533.34;;;13.63;68.97
13476;BME280;6810;63.824;20.288;2022-08-30T03:51:08;102542.25;;;13.63;69.19
13476;BME280;6810;63.824;20.288;2022-08-30T03:53:36;102543.19;;;13.62;69.05
13476;BME280;6810;63.824;20.288;2022-08-30T03:56:03;102541.47;;;13.61;68.84
13476;BME280;6810;63.824;20.288;2022-08-30T03:58:30;102542.38;;;13.60;69.47
13476;BME280;6810;63.824;20.288;2022-08-30T04:00:57;102543.25;;;13.61;68.88
13476;BME280;6810;63.824;20.288;2022-08-30T04:03:24;102541.53;;;13.60;69.33
13476;BME280;6810;63.824;20.288;2022-08-30T04:05:53;102545.13;;;13.59;68.78
13476;BME280;6810;63.824;20.288;2022-08-30T04:08:20;102545.13;;;13.59;68.48
13476;BME280;6810;63.824;20.288;2022-08-30T04:10:47;102547.00;;;13.57;69.30
13476;BME280;6810;63.824;20.288;2022-08-30T04:13:15;102551.47;;;13.56;69.08
13476;BME280;6810;63.824;20.288;2022-08-30T04:15:42;102555.09;;;13.55;69.07
13476;BME280;6810;63.824;20.288;2022-08-30T04:18:09;102554.22;;;13.55;69.32
13476;BME280;6810;63.824;20.288;2022-08-30T04:20:37;102555.19;;;13.54;68.94
13476;BME280;6810;63.824;20.288;2022-08-30T04:23:05;102525.19;;;13.44;69.48
13476;BME280;6810;63.824;20.288;2022-08-30T04:25:36;102554.28;;;13.53;69.67
13476;BME280;6810;63.824;20.288;2022-08-30T04:28:04;102551.59;;;13.53;69.36
13476;BME280;6810;63.824;20.288;2022-08-30T04:30:32;102555.25;;;13.52;68.88
13476;BME280;6810;63.824;20.288;2022-08-30T04:32:59;102551.81;;;13.49;69.45
13476;BME280;6810;63.824;20.288;2022-08-30T04:35:26;102566.81;;;13.53;69.12
13476;BME280;6810;63.824;20.288;2022-08-30T04:37:53;102561.44;;;13.53;69.45
13476;BME280;6810;63.824;20.288;2022-08-30T04:40:20;102563.28;;;13.52;69.89
13476;BME280;6810;63.824;20.288;2022-08-30T04:42:49;102551.75;;;13.50;69.03
13476;BME280;6810;63.824;20.288;2022-08-30T04:45:20;102556.97;;;13.53;69.24
13476;BME280;6810;63.824;20.288;2022-08-30T04:47:47;102557.84;;;13.54;69.33
13476;BME280;6810;63.824;20.288;2022-08-30T04:50:16;102571.19;;;13.55;69.97
13476;BME280;6810;63.824;20.288;2022-08-30T04:52:44;102558.56;;;13.57;69.55
13476;BME280;6810;63.824;20.288;2022-08-30T04:55:12;102567.50;;;13.58;69.86
13476;BME280;6810;63.824;20.288;2022-08-30T04:57:46;102569.28;;;13.57;69.50
13476;BME280;6810;63.824;20.288;2022-08-30T05:00:13;102568.38;;;13.58;69.81
13476;BME280;6810;63.824;20.288;2022-08-30T05:02:41;102566.03;;;13.51;70.16
13476;BME280;6810;63.824;20.288;2022-08-30T05:05:09;102577.34;;;13.57;69.91
13476;BME280;6810;63.824;20.288;2022-08-30T05:07:54;102547.75;;;13.39;70.19
13476;BME280;6810;63.824;20.288;2022-08-30T05:10:22;102581.78;;;13.58;70.28
13476;BME280;6810;63.824;20.288;2022-08-30T05:12:49;102583.50;;;13.59;70.22
13476;BME280;6810;63.824;20.288;2022-08-30T05:15:16;102578.16;;;13.59;70.26
13476;BME280;6810;63.824;20.288;2022-08-30T05:17:43;102586.13;;;13.61;70.05
13476;BME280;6810;63.824;20.288;2022-08-30T05:20:10;102582.50;;;13.62;70.04
13476;BME280;6810;63.824;20.288;2022-08-30T05:22:40;102580.72;;;13.62;69.92
13476;BME280;6810;63.824;20.288;2022-08-30T05:25:07;102586.88;;;13.64;70.36
13476;BME280;6810;63.824;20.288;2022-08-30T05:27:40;102588.63;;;13.65;70.37
13476;BME280;6810;63.824;20.288;2022-08-30T05:30:08;102594.88;;;13.66;70.71
13476;BME280;6810;63.824;20.288;2022-08-30T05:32:35;102592.19;;;13.66;70.44
13476;BME280;6810;63.824;20.288;2022-08-30T05:35:04;102586.06;;;13.62;70.26
13476;BME280;6810;63.824;20.288;2022-08-30T05:37:32;102600.16;;;13.67;70.34
13476;BME280;6810;63.824;20.288;2022-08-30T05:39:59;102581.41;;;13.67;70.34
13476;BME280;6810;63.824;20.288;2022-08-30T05:42:27;102599.16;;;13.70;70.18
13476;BME280;6810;63.824;20.288;2022-08-30T05:44:54;102591.03;;;13.71;70.65
13476;BME280;6810;63.824;20.288;2022-08-30T05:47:21;102592.97;;;13.68;70.59
13476;BME280;6810;63.824;20.288;2022-08-30T05:49:49;102563.03;;;13.58;70.72
13476;BME280;6810;63.824;20.288;2022-08-30T05:52:16;102577.97;;;13.64;70.56
13476;BME280;6810;63.824;20.288;2022-08-30T05:54:44;102602.47;;;13.76;70.41
13476;BME280;6810;63.824;20.288;2022-08-30T05:57:12;102606.00;;;13.77;70.19
13476;BME280;6810;63.824;20.288;2022-08-30T05:59:39;102590.78;;;13.77;70.83
13476;BME280;6810;63.824;20.288;2022-08-30T06:02:06;102594.41;;;13.76;70.32
13476;BME280;6810;63.824;20.288;2022-08-30T06:04:33;102603.31;;;13.77;70.48
13476;BME280;6810;63.824;20.288;2022-08-30T06:07:02;102597.94;;;13.77;70.71
13476;BME280;6810;63.824;20.288;2022-08-30T06:09:30;102567.19;;;13.65;70.98
13476;BME280;6810;63.824;20.288;2022-08-30T06:11:57;102596.16;;;13.77;70.94
13476;BME280;6810;63.824;20.288;2022-08-30T06:14:24;102549.88;;;13.52;70.69
13476;BME280;6810;63.824;20.288;2022-08-30T06:16:51;102596.91;;;13.81;71.40
13476;BME280;6810;63.824;20.288;2022-08-30T06:19:19;102597.72;;;13.83;71.20
13476;BME280;6810;63.824;20.288;2022-08-30T06:21:47;102601.13;;;13.86;71.29
13476;BME280;6810;63.824;20.288;2022-08-30T06:24:15;102603.69;;;13.89;71.15
13476;BME280;6810;63.824;20.288;2022-08-30T06:26:44;102590.53;;;13.83;71.73
13476;BME280;6810;63.824;20.288;2022-08-30T06:29:32;102608.06;;;13.92;71.29
13476;BME280;6810;63.824;20.288;2022-08-30T06:32:19;102614.09;;;13.97;71.24
13476;BME280;6810;63.824;20.288;2022-08-30T06:35:07;102585.94;;;13.87;71.32
13476;BME280;6810;63.824;20.288;2022-08-30T06:37:54;102617.06;;;14.11;71.30
13476;BME280;6810;63.824;20.288;2022-08-30T06:40:42;102616.78;;;14.17;71.57
13476;BME280;6810;63.824;20.288;2022-08-30T06:43:29;102625.50;;;14.24;71.27
13476;BME280;6810;63.824;20.288;2022-08-30T06:46:21;102613.53;;;14.31;71.17
13476;BME280;6810;63.824;20.288;2022-08-30T06:49:08;102618.63;;;14.37;71.27
13476;BME280;6810;63.824;20.288;2022-08-30T06:51:55;102624.63;;;14.43;71.02
13476;BME280;6810;63.824;20.288;2022-08-30T06:54:44;102631.47;;;14.50;71.01
13476;BME280;6810;63.824;20.288;2022-08-30T06:57:31;102615.19;;;14.55;70.92
13476;BME280;6810;63.824;20.288;2022-08-30T07:00:18;102621.94;;;14.63;70.42
13476;BME280;6810;63.824;20.288;2022-08-30T07:03:05;102619.84;;;14.70;69.96
13476;BME280;6810;63.824;20.288;2022-08-30T07:05:54;102618.56;;;14.78;70.04
13476;BME280;6810;63.824;20.288;2022-08-30T07:08:22;102625.47;;;14.84;69.62
13476;BME280;6810;63.824;20.288;2022-08-30T07:10:51;102623.28;;;14.92;68.99
13476;BME280;6810;63.824;20.288;2022-08-30T07:13:21;102595.13;;;14.82;68.86
13476;BME280;6810;63.824;20.288;2022-08-30T07:15:50;102627.19;;;15.05;69.19
13476;BME280;6810;63.824;20.288;2022-08-30T07:18:17;102631.38;;;15.10;68.79
13476;BME280;6810;63.824;20.288;2022-08-30T07:21:15;102640.03;;;15.17;69.09
13476;BME280;6810;63.824;20.288;2022-08-30T07:23:43;102640.63;;;15.23;69.15
13476;BME280;6810;63.824;20.288;2022-08-30T07:26:13;102639.59;;;15.26;68.74
13476;BME280;6810;63.824;20.288;2022-08-30T07:28:42;102635.81;;;15.30;68.74
13476;BME280;6810;63.824;20.288;2022-08-30T07:31:11;102636.63;;;15.32;68.54
13476;BME280;6810;63.824;20.288;2022-08-30T07:33:39;102641.84;;;15.35;68.44
13476;BME280;6810;63.824;20.288;2022-08-30T07:36:09;102620.78;;;15.26;68.32
13476;BME280;6810;63.824;20.288;2022-08-30T07:38:36;102631.31;;;15.30;68.46
13476;BME280;6810;63.824;20.288;2022-08-30T07:41:05;102644.19;;;15.42;68.48
13476;BME280;6810;63.824;20.288;2022-08-30T07:43:33;102642.53;;;15.40;67.92
13476;BME280;6810;63.824;20.288;2022-08-30T07:46:04;102644.13;;;15.44;67.86
13476;BME280;6810;63.824;20.288;2022-08-30T07:48:33;102643.97;;;15.47;67.88
13476;BME280;6810;63.824;20.288;2022-08-30T07:51:23;102655.47;;;15.50;67.55
13476;BME280;6810;63.824;20.288;2022-08-30T07:54:11;102627.47;;;15.36;67.55
13476;BME280;6810;63.824;20.288;2022-08-30T07:56:59;102652.56;;;15.55;67.50
13476;BME280;6810;63.824;20.288;2022-08-30T07:59:46;102655.09;;;15.58;67.47
13476;BME280;6810;63.824;20.288;2022-08-30T08:02:37;102663.97;;;15.60;67.12
13476;BME280;6810;63.824;20.288;2022-08-30T08:05:24;102663.81;;;15.63;67.10
13476;BME280;6810;63.824;20.288;2022-08-30T08:08:12;102661.34;;;15.58;67.21
13476;BME280;6810;63.824;20.288;2022-08-30T08:11:20;102660.84;;;15.69;66.86
13476;BME280;6810;63.824;20.288;2022-08-30T08:14:08;102668.75;;;15.72;66.96
13476;BME280;6810;63.824;20.288;2022-08-30T08:16:55;102669.50;;;15.76;66.49
13476;BME280;6810;63.824;20.288;2022-08-30T08:19:42;102668.38;;;15.80;66.33
13476;BME280;6810;63.824;20.288;2022-08-30T08:22:29;102675.25;;;15.85;66.63
13476;BME280;6810;63.824;20.288;2022-08-30T08:25:17;102666.13;;;15.89;66.33
13476;BME280;6810;63.824;20.288;2022-08-30T08:28:04;102668.66;;;15.92;65.92
13476;BME280;6810;63.824;20.288;2022-08-30T08:30:51;102651.44;;;15.78;65.41
13476;BME280;6810;63.824;20.288;2022-08-30T08:33:39;102676.56;;;15.95;65.23
13476;BME280;6810;63.824;20.288;2022-08-30T08:36:26;102672.19;;;15.93;65.15
13476;BME280;6810;63.824;20.288;2022-08-30T08:39:14;102684.19;;;16.04;65.33
13476;BME280;6810;63.824;20.288;2022-08-30T08:42:04;102683.88;;;16.10;65.43
13476;BME280;6810;63.824;20.288;2022-08-30T08:45:00;102651.41;;;15.96;65.26
13476;BME280;6810;63.824;20.288;2022-08-30T08:47:57;102683.41;;;16.19;64.73
13476;BME280;6810;63.824;20.288;2022-08-30T08:50:46;102687.00;;;16.20;64.30
13476;BME280;6810;63.824;20.288;2022-08-30T08:53:34;102656.25;;;16.07;64.07
13476;BME280;6810;63.824;20.288;2022-08-30T08:56:21;102678.44;;;16.12;63.95
13476;BME280;6810;63.824;20.288;2022-08-30T08:59:10;102701.53;;;16.16;63.65
13476;BME280;6810;63.824;20.288;2022-08-30T09:01:58;102685.47;;;16.14;64.26
13476;BME280;6810;63.824;20.288;2022-08-30T09:04:46;102701.38;;;16.19;63.62
13476;BME280;6810;63.824;20.288;2022-08-30T09:07:36;102683.00;;;16.10;64.34
13476;BME280;6810;63.824;20.288;2022-08-30T09:10:25;102700.22;;;16.24;63.65
13476;BME280;6810;63.824;20.288;2022-08-30T09:13:17;102684.38;;;16.18;63.43
13476;BME280;6810;63.824;20.288;2022-08-30T09:16:06;102705.97;;;16.34;63.51
13476;BME280;6810;63.824;20.288;2022-08-30T09:18:53;102706.63;;;16.39;62.97
13476;BME280;6810;63.824;20.288;2022-08-30T09:21:40;102713.50;;;16.46;62.98
13476;BME280;6810;63.824;20.288;2022-08-30T09:24:46;102708.66;;;16.52;63.40
13476;BME280;6810;63.824;20.288;2022-08-30T09:27:40;102713.56;;;16.61;62.99
13476;BME280;6810;63.824;20.288;2022-08-30T09:30:28;102719.44;;;16.69;62.49
13476;BME280;6810;63.824;20.288;2022-08-30T09:33:19;102704.63;;;16.78;62.21
13476;BME280;6810;63.824;20.288;2022-08-30T09:36:27;102710.22;;;16.90;62.15
13476;BME280;6810;63.824;20.288;2022-08-30T09:39:34;102701.13;;;16.93;61.66
13476;BME280;6810;63.824;20.288;2022-08-30T09:42:27;102714.91;;;17.04;61.76
13476;BME280;6810;63.824;20.288;2022-08-30T09:45:19;102712.72;;;17.10;60.81
13476;BME280;6810;63.824;20.288;2022-08-30T09:48:31;102718.03;;;17.12;60.03
13476;BME280;6810;63.824;20.288;2022-08-30T09:51:45;102676.47;;;16.83;59.69
13476;BME280;6810;63.824;20.288;2022-08-30T09:58:22;102715.13;;;16.99;60.24
13476;BME280;6810;63.824;20.288;2022-08-30T10:01:21;102720.13;;;17.07;59.92
13476;BME280;6810;63.824;20.288;2022-08-30T10:04:26;102729.84;;;17.26;59.74
13476;BME280;6810;63.824;20.288;2022-08-30T10:07:25;102719.63;;;17.49;59.17
13476;BME280;6810;63.824;20.288;2022-08-30T10:13:48;102720.31;;;17.85;58.11
13476;BME280;6810;63.824;20.288;2022-08-30T10:26:08;102734.81;;;17.98;57.02
13476;BME280;6810;63.824;20.288;2022-08-30T10:32:16;102740.13;;;17.84;56.13
13476;BME280;6810;63.824;20.288;2022-08-30T10:35:13;102743.78;;;17.67;56.00
13476;BME280;6810;63.824;20.288;2022-08-30T10:41:42;102752.38;;;17.41;57.11
13476;BME280;6810;63.824;20.288;2022-08-30T10:44:31;102749.25;;;17.33;57.35
13476;BME280;6810;63.824;20.288;2022-08-30T10:47:27;102755.03;;;17.25;57.25
13476;BME280;6810;63.824;20.288;2022-08-30T10:50:28;102750.78;;;17.21;58.42
13476;BME280;6810;63.824;20.288;2022-08-30T10:53:20;102748.06;;;17.21;57.91
13476;BME280;6810;63.824;20.288;2022-08-30T10:56:15;102732.41;;;17.12;58.28
13476;BME280;6810;63.824;20.288;2022-08-30T10:59:04;102751.00;;;17.34;58.41
13476;BME280;6810;63.824;20.288;2022-08-30T11:14:13;102748.97;;;17.55;56.54
13476;BME280;6810;63.824;20.288;2022-08-30T11:17:01;102755.75;;;17.46;56.46
13476;BME280;6810;63.824;20.288;2022-08-30T11:19:50;102757.88;;;17.40;56.93
13476;BME280;6810;63.824;20.288;2022-08-30T11:22:37;102758.84;;;17.39;57.17
13476;BME280;6810;63.824;20.288;2022-08-30T11:31:37;102761.78;;;17.34;57.33
13476;BME280;6810;63.824;20.288;2022-08-30T11:37:42;102750.50;;;17.43;56.95
13476;BME280;6810;63.824;20.288;2022-08-30T11:55:52;102751.81;;;18.00;54.53
13476;BME280;6810;63.824;20.288;2022-08-30T11:58:53;102749.22;;;18.14;54.21
13476;BME280;6810;63.824;20.288;2022-08-30T12:01:43;102739.06;;;18.17;53.80
13476;BME280;6810;63.824;20.288;2022-08-30T12:04:46;102748.94;;;18.18;53.55
13476;BME280;6810;63.824;20.288;2022-08-30T12:08:00;102756.50;;;18.12;53.43
13476;BME280;6810;63.824;20.288;2022-08-30T12:13:53;102740.50;;;17.93;53.32
13476;BME280;6810;63.824;20.288;2022-08-30T12:16:46;102746.06;;;17.90;53.77
13476;BME280;6810;63.824;20.288;2022-08-30T12:19:32;102731.94;;;17.85;53.71
13476;BME280;6810;63.824;20.288;2022-08-30T12:22:21;102738.31;;;17.84;53.37
13476;BME280;6810;63.824;20.288;2022-08-30T12:25:25;102730.22;;;17.84;53.76
13476;BME280;6810;63.824;20.288;2022-08-30T12:28:22;102734.47;;;17.88;52.70
13476;BME280;6810;63.824;20.288;2022-08-30T12:31:13;102738.94;;;17.89;53.51
13476;BME280;6810;63.824;20.288;2022-08-30T12:34:01;102724.72;;;17.86;52.57
13476;BME280;6810;63.824;20.288;2022-08-30T12:37:03;102738.94;;;17.89;52.87
13476;BME280;6810;63.824;20.288;2022-08-30T12:43:20;102741.78;;;17.71;52.85
13476;BME280;6810;63.824;20.288;2022-08-30T12:46:10;102737.00;;;17.60;52.79
13476;BME280;6810;63.824;20.288;2022-08-30T12:48:59;102742.47;;;17.59;53.08
13476;BME280;6810;63.824;20.288;2022-08-30T12:51:46;102734.75;;;17.68;53.21
13476;BME280;6810;63.824;20.288;2022-08-30T12:54:38;102725.78;;;17.83;53.15
13476;BME280;6810;63.824;20.288;2022-08-30T12:58:05;102729.25;;;18.01;52.45
13476;BME280;6810;63.824;20.288;2022-08-30T13:00:50;102729.44;;;18.13;52.84
13476;BME280;6810;63.824;20.288;2022-08-30T13:03:38;102738.81;;;18.22;51.79
13476;BME280;6810;63.824;20.288;2022-08-30T13:06:55;102732.47;;;18.23;52.30
13476;BME280;6810;63.824;20.288;2022-08-30T13:09:42;102728.19;;;18.19;51.61
13476;BME280;6810;63.824;20.288;2022-08-30T13:12:30;102725.00;;;18.12;51.29
13476;BME280;6810;63.824;20.288;2022-08-30T13:15:27;102729.88;;;18.06;51.10
13476;BME280;6810;63.824;20.288;2022-08-30T13:18:24;102734.56;;;18.02;51.59
13476;BME280;6810;63.824;20.288;2022-08-30T13:21:30;102731.34;;;17.96;50.95
13476;BME280;6810;63.824;20.288;2022-08-30T13:24:17;102744.59;;;17.85;50.66
13476;BME280;6810;63.824;20.288;2022-08-30T13:27:04;102734.56;;;17.71;51.40
13476;BME280;6810;63.824;20.288;2022-08-30T13:29:52;102728.91;;;17.60;51.53
13476;BME280;6810;63.824;20.288;2022-08-30T13:32:41;102730.81;;;17.58;51.53
13476;BME280;6810;63.824;20.288;2022-08-30T13:35:29;102682.69;;;17.33;51.70
13476;BME280;6810;63.824;20.288;2022-08-30T13:38:17;102723.50;;;17.60;51.47
13476;BME280;6810;63.824;20.288;2022-08-30T13:41:04;102735.47;;;17.55;50.84
13476;BME280;6810;63.824;20.288;2022-08-30T13:43:56;102705.25;;;17.33;51.34
13476;BME280;6810;63.824;20.288;2022-08-30T13:46:46;102736.22;;;17.41;50.84
13476;BME280;6810;63.824;20.288;2022-08-30T13:49:54;102734.81;;;17.34;51.82
13476;BME280;6810;63.824;20.288;2022-08-30T13:52:46;102732.28;;;17.31;51.63
13476;BME280;6810;63.824;20.288;2022-08-30T13:55:35;102725.38;;;17.25;51.80
13476;BME280;6810;63.824;20.288;2022-08-30T13:58:22;102731.72;;;17.24;51.81
13476;BME280;6810;63.824;20.288;2022-08-30T14:01:12;102716.16;;;17.14;52.14
13476;BME280;6810;63.824;20.288;2022-08-30T14:04:19;102729.44;;;17.17;51.82
13476;BME280;6810;63.824;20.288;2022-08-30T14:07:06;102740.16;;;17.18;51.98
13476;BME280;6810;63.824;20.288;2022-08-30T14:09:55;102736.75;;;17.15;51.99
13476;BME280;6810;63.824;20.288;2022-08-30T14:12:58;102729.88;;;17.09;51.93
13476;BME280;6810;63.824;20.288;2022-08-30T14:15:49;102734.53;;;17.06;51.80
13476;BME280;6810;63.824;20.288;2022-08-30T14:18:54;102746.59;;;16.99;52.30
13476;BME280;6810;63.824;20.288;2022-08-30T14:21:42;102742.38;;;16.93;52.47
13476;BME280;6810;63.824;20.288;2022-08-30T14:24:29;102739.69;;;16.93;52.85
13476;BME280;6810;63.824;20.288;2022-08-30T14:27:16;102730.13;;;16.88;52.45
13476;BME280;6810;63.824;20.288;2022-08-30T14:30:05;102735.28;;;16.92;53.15
13476;BME280;6810;63.824;20.288;2022-08-30T14:32:52;102714.59;;;16.76;52.89
13476;BME280;6810;63.824;20.288;2022-08-30T14:35:39;102734.63;;;16.87;52.27
13476;BME280;6810;63.824;20.288;2022-08-30T14:38:26;102738.69;;;16.79;52.25
13476;BME280;6810;63.824;20.288;2022-08-30T14:41:14;102737.56;;;16.66;52.75
13476;BME280;6810;63.824;20.288;2022-08-30T14:44:07;102711.25;;;16.54;53.24
13476;BME280;6810;63.824;20.288;2022-08-30T14:46:54;102716.66;;;16.54;53.53
13476;BME280;6810;63.824;20.288;2022-08-30T14:49:42;102732.56;;;16.58;52.99
13476;BME280;6810;63.824;20.288;2022-08-30T14:52:30;102729.19;;;16.55;53.10
13476;BME280;6810;63.824;20.288;2022-08-30T14:55:17;102738.34;;;16.51;53.36
13476;BME280;6810;63.824;20.288;2022-08-30T14:58:04;102720.00;;;16.40;52.66
13476;BME280;6810;63.824;20.288;2022-08-30T15:00:51;102738.09;;;16.38;52.68
13476;BME280;6810;63.824;20.288;2022-08-30T15:03:40;102733.13;;;16.29;53.17
13476;BME280;6810;63.824;20.288;2022-08-30T15:06:27;102733.44;;;16.23;53.69
13476;BME280;6810;63.824;20.288;2022-08-30T15:09:17;102739.06;;;16.19;53.93
13476;BME280;6810;63.824;20.288;2022-08-30T15:12:05;102731.22;;;16.14;53.98